createdAt,value
2019-02-03T00:00:57.343Z,12.83
2019-02-03T00:03:25.771Z,11.43
2019-02-03T00:05:54.243Z,12.77
2019-02-03T00:08:22.685Z,11.43
2019-02-03T00:10:51.096Z,11.57
2019-02-03T00:13:19.554Z,11.57
2019-02-03T00:15:48.562Z,12.70
2019-02-03T00:18:16.974Z,10.10
2019-02-03T00:20:45.611Z,11.70
2019-02-03T00:23:14.273Z,10.83
2019-02-03T00:25:42.939Z,12.10
2019-02-03T00:28:11.646Z,11.63
2019-02-03T00:30:40.463Z,11.90
2019-02-03T00:33:09.111Z,11.53
2019-02-03T00:35:37.574Z,10.20
2019-02-03T00:38:05.977Z,12.00
2019-02-03T00:40:34.436Z,12.30
2019-02-03T00:43:03.133Z,11.90
2019-02-03T00:45:31.618Z,12.23
2019-02-03T00:48:00.170Z,11.13
2019-02-03T00:50:28.861Z,10.93
2019-02-03T00:52:57.502Z,10.20
2019-02-03T00:55:25.945Z,10.03
2019-02-03T00:57:54.679Z,11.40
2019-02-03T01:00:23.142Z,9.13
2019-02-03T01:02:51.592Z,12.10
2019-02-03T01:05:20.539Z,9.50
2019-02-03T01:07:49.243Z,9.40
2019-02-03T01:10:19.884Z,9.17
2019-02-03T01:12:50.491Z,10.53
2019-02-03T01:15:19.240Z,11.57
2019-02-03T01:17:47.718Z,11.50
2019-02-03T01:20:21.490Z,11.87
2019-02-03T01:22:49.973Z,13.67
2019-02-03T01:25:18.646Z,14.90
2019-02-03T01:27:47.406Z,12.80
2019-02-03T01:30:21.225Z,14.93
2019-02-03T01:32:49.908Z,15.07
2019-02-03T01:35:19.557Z,14.60
2019-02-03T01:37:48.225Z,14.80
2019-02-03T01:40:20.335Z,15.03
2019-02-03T01:42:49.098Z,15.50
2019-02-03T01:45:22.105Z,15.47
2019-02-03T01:47:50.526Z,15.20
2019-02-03T01:50:18.954Z,16.10
2019-02-03T01:52:47.502Z,16.10
2019-02-03T01:55:21.241Z,17.83
2019-02-03T01:57:49.703Z,16.73
2019-02-03T02:00:21.220Z,16.37
2019-02-03T02:02:50.441Z,17.60
2019-02-03T02:05:19.488Z,17.90
2019-02-03T02:07:51.563Z,17.90
2019-02-03T02:10:20.802Z,18.50
2019-02-03T02:12:49.377Z,18.03
2019-02-03T02:15:21.789Z,19.10
2019-02-03T02:17:51.441Z,19.37
2019-02-03T02:20:28.140Z,19.40
2019-02-03T02:22:57.230Z,19.67
2019-02-03T02:25:25.780Z,19.40
2019-02-03T02:27:54.198Z,20.33
2019-02-03T02:30:24.860Z,20.67
2019-02-03T02:32:53.444Z,22.57
2019-02-03T02:35:21.885Z,20.67
2019-02-03T02:38:03.968Z,22.53
2019-02-03T02:40:22.427Z,21.67
2019-02-03T02:42:51.267Z,22.20
2019-02-03T02:45:20.238Z,22.53
2019-02-03T02:47:48.927Z,24.23
2019-02-03T02:50:25.885Z,23.40
2019-02-03T02:52:54.385Z,22.87
2019-02-03T02:55:23.086Z,24.27
2019-02-03T02:57:51.946Z,25.13
2019-02-03T03:00:25.195Z,22.77
2019-02-03T03:02:54.002Z,21.40
2019-02-03T03:05:22.907Z,24.33
2019-02-03T03:07:51.535Z,22.40
2019-02-03T03:10:21.054Z,22.47
2019-02-03T03:12:50.035Z,25.37
2019-02-03T03:15:20.257Z,20.60
2019-02-03T03:17:48.934Z,19.10
2019-02-03T03:20:19.602Z,21.80
2019-02-03T03:22:48.469Z,21.33
2019-02-03T03:25:19.621Z,22.83
2019-02-03T03:27:48.350Z,23.00
2019-02-03T03:30:21.909Z,23.77
2019-02-03T03:32:50.434Z,21.43
2019-02-03T03:35:18.937Z,22.87
2019-02-03T03:37:47.563Z,21.27
2019-02-03T03:40:21.408Z,23.03
2019-02-03T03:42:49.938Z,21.80
2019-02-03T03:45:18.635Z,23.00
2019-02-03T03:47:47.021Z,23.83
2019-02-03T03:50:16.322Z,24.27
2019-02-03T03:52:44.974Z,23.57
2019-02-03T03:55:13.837Z,21.43
2019-02-03T03:57:42.516Z,23.20
2019-02-03T04:00:17.095Z,21.90
2019-02-03T04:02:45.730Z,21.93
2019-02-03T04:05:14.662Z,24.40
2019-02-03T04:07:43.289Z,24.40
2019-02-03T04:10:14.480Z,23.03
2019-02-03T04:12:42.911Z,23.83
2019-02-03T04:15:14.358Z,22.60
2019-02-03T04:17:43.167Z,21.70
2019-02-03T04:20:17.718Z,22.37
2019-02-03T04:22:46.512Z,22.23
2019-02-03T04:25:15.062Z,22.83
2019-02-03T04:27:43.501Z,21.73
2019-02-03T04:30:15.334Z,21.67
2019-02-03T04:32:43.964Z,22.87
2019-02-03T04:35:12.457Z,18.30
2019-02-03T04:37:40.916Z,21.07
2019-02-03T04:40:15.129Z,19.57
2019-02-03T04:42:43.658Z,21.67
2019-02-03T04:45:14.388Z,20.10
2019-02-03T04:47:43.111Z,18.67
2019-02-03T04:50:13.984Z,18.63
2019-02-03T04:52:42.614Z,19.23
2019-02-03T04:55:13.897Z,19.20
2019-02-03T04:57:42.351Z,18.43
2019-02-03T05:00:16.596Z,17.80
2019-02-03T05:02:45.384Z,17.70
2019-02-03T05:05:14.313Z,18.70
2019-02-03T05:07:42.709Z,20.90
2019-02-03T05:10:13.726Z,19.90
2019-02-03T05:12:42.518Z,18.03
2019-02-03T05:15:17.414Z,18.67
2019-02-03T05:17:46.232Z,17.30
2019-02-03T05:20:17.961Z,19.40
2019-02-03T05:22:47.137Z,20.83
2019-02-03T05:25:15.811Z,18.33
2019-02-03T05:27:44.651Z,17.77
2019-02-03T05:30:27.378Z,18.00
2019-02-03T05:32:55.816Z,19.33
2019-02-03T05:35:24.342Z,16.83
2019-02-03T05:37:52.777Z,17.07
2019-02-03T05:40:21.171Z,16.17
2019-02-03T05:42:49.574Z,16.90
2019-02-03T05:45:22.569Z,15.33
2019-02-03T05:47:51.335Z,18.90
2019-02-03T05:50:23.195Z,17.07
2019-02-03T05:52:51.747Z,14.17
2019-02-03T05:55:20.611Z,17.43
2019-02-03T05:57:49.263Z,14.93
2019-02-03T06:00:24.671Z,13.90
2019-02-03T06:02:53.073Z,14.20
2019-02-03T06:05:21.693Z,13.40
2019-02-03T06:07:50.791Z,15.70
2019-02-03T06:10:19.423Z,16.83
2019-02-03T06:12:47.901Z,13.50
2019-02-03T06:15:16.942Z,15.17
2019-02-03T06:17:45.346Z,14.03
2019-02-03T06:20:16.827Z,13.10
2019-02-03T06:22:46.202Z,14.83
2019-02-03T06:25:15.161Z,13.07
2019-02-03T06:27:44.009Z,13.07
2019-02-03T06:30:21.316Z,12.17
2019-02-03T06:32:49.983Z,12.60
2019-02-03T06:35:18.619Z,14.67
2019-02-03T06:37:47.226Z,15.30
2019-02-03T06:40:15.695Z,12.83
2019-02-03T06:42:44.335Z,12.33
2019-02-03T06:45:30.411Z,14.07
2019-02-03T06:47:59.566Z,13.50
2019-02-03T06:50:27.989Z,13.23
2019-02-03T06:52:57.130Z,13.43
2019-02-03T06:55:25.810Z,13.10
2019-02-03T06:57:54.201Z,13.17
2019-02-03T07:00:22.862Z,11.57
2019-02-03T07:02:51.485Z,12.60
2019-02-03T07:05:19.890Z,14.07
2019-02-03T07:07:48.824Z,12.33
2019-02-03T07:10:17.895Z,13.67
2019-02-03T07:12:46.429Z,12.87
2019-02-03T07:15:15.029Z,12.47
2019-02-03T07:17:43.448Z,15.33
2019-02-03T07:20:18.696Z,14.57
2019-02-03T07:22:47.460Z,13.30
2019-02-03T07:25:15.912Z,13.17
2019-02-03T07:27:44.310Z,13.60
2019-02-03T07:30:25.429Z,13.90
2019-02-03T07:32:54.119Z,12.50
2019-02-03T07:35:22.751Z,14.20
2019-02-03T07:37:51.261Z,13.37
2019-02-03T07:40:21.229Z,14.20
2019-02-03T07:42:49.704Z,11.80
2019-02-03T07:45:18.283Z,14.03
2019-02-03T07:47:47.579Z,14.43
2019-02-03T07:50:16.913Z,14.80
2019-02-03T07:52:46.162Z,14.20
2019-02-03T07:55:15.302Z,15.60
2019-02-03T07:57:43.889Z,14.87
2019-02-03T08:00:17.464Z,16.07
2019-02-03T08:02:45.858Z,16.20
2019-02-03T08:05:14.577Z,15.00
2019-02-03T08:07:43.020Z,17.43
2019-02-03T08:10:25.776Z,16.40
2019-02-03T08:12:49.494Z,15.67
2019-02-03T08:15:19.101Z,18.13
2019-02-03T08:17:47.806Z,15.97
2019-02-03T08:20:30.663Z,15.73
2019-02-03T08:22:59.048Z,17.37
2019-02-03T08:25:28.186Z,18.17
2019-02-03T08:27:56.781Z,16.17
2019-02-03T08:30:30.164Z,16.23
2019-02-03T08:32:58.804Z,17.30
2019-02-03T08:35:27.399Z,18.07
2019-02-03T08:37:56.049Z,17.60
2019-02-03T08:40:36.783Z,16.53
2019-02-03T08:42:56.737Z,17.20
2019-02-03T08:45:25.924Z,17.60
2019-02-03T08:47:54.571Z,17.33
2019-02-03T08:50:24.007Z,16.00
2019-02-03T08:52:52.486Z,17.30
2019-02-03T08:55:21.122Z,17.90
2019-02-03T08:57:49.792Z,17.00
2019-02-03T09:00:34.615Z,19.10
2019-02-03T09:03:03.041Z,19.23
2019-02-03T09:05:32.156Z,16.90
2019-02-03T09:08:00.578Z,16.97
2019-02-03T09:10:29.333Z,20.83
2019-02-03T09:12:57.757Z,19.27
2019-02-03T09:15:27.377Z,20.10
2019-02-03T09:17:56.008Z,18.63
2019-02-03T09:20:30.014Z,19.20
2019-02-03T09:22:58.665Z,17.00
2019-02-03T09:25:27.356Z,18.80
2019-02-03T09:27:56.008Z,17.80
2019-02-03T09:30:35.329Z,18.13
2019-02-03T09:33:05.075Z,20.30
2019-02-03T09:35:34.104Z,17.43
2019-02-03T09:38:02.510Z,18.20
2019-02-03T09:40:33.239Z,17.57
2019-02-03T09:43:02.236Z,20.13
2019-02-03T09:45:30.923Z,19.47
2019-02-03T09:48:00.746Z,17.67
2019-02-03T09:50:31.141Z,18.37
2019-02-03T09:53:01.534Z,18.37
2019-02-03T09:55:31.150Z,17.07
2019-02-03T09:58:00.604Z,16.00
2019-02-03T10:00:36.082Z,18.80
2019-02-03T10:03:09.228Z,16.27
2019-02-03T10:05:37.640Z,16.40
2019-02-03T10:08:06.499Z,16.50
2019-02-03T10:10:39.512Z,17.13
2019-02-03T10:13:08.346Z,16.67
2019-02-03T10:15:37.031Z,19.20
2019-02-03T10:18:08.194Z,18.17
2019-02-03T10:20:36.607Z,17.13
2019-02-03T10:23:05.563Z,16.87
2019-02-03T10:25:35.408Z,18.03
2019-02-03T10:28:04.464Z,17.47
2019-02-03T10:30:32.877Z,17.67
2019-02-03T10:33:01.517Z,17.83
2019-02-03T10:35:32.007Z,19.37
2019-02-03T10:38:01.006Z,19.50
2019-02-03T10:40:38.332Z,18.53
2019-02-03T10:43:07.365Z,19.00
2019-02-03T10:45:35.833Z,18.60
2019-02-03T10:48:05.124Z,17.33
2019-02-03T10:50:38.237Z,18.20
2019-02-03T10:53:09.337Z,16.97
2019-02-03T10:55:38.166Z,20.20
2019-02-03T10:58:07.197Z,18.13
2019-02-03T11:00:41.350Z,20.07
2019-02-03T11:03:11.015Z,20.43
2019-02-03T11:05:42.770Z,18.40
2019-02-03T11:08:12.607Z,21.63
2019-02-03T11:10:41.485Z,20.53
2019-02-03T11:13:09.942Z,19.67
2019-02-03T11:15:38.615Z,18.20
2019-02-03T11:18:07.420Z,17.00
2019-02-03T11:20:36.250Z,20.60
2019-02-03T11:23:05.237Z,20.77
2019-02-03T11:25:33.869Z,19.33
2019-02-03T11:28:02.651Z,19.57
2019-02-03T11:30:31.550Z,19.83
2019-02-03T11:33:06.160Z,19.73
2019-02-03T11:35:32.211Z,18.40
2019-02-03T11:38:00.812Z,21.67
2019-02-03T11:40:36.963Z,19.07
2019-02-03T11:43:06.272Z,18.30
2019-02-03T11:45:38.430Z,17.57
2019-02-03T11:48:13.229Z,18.57
2019-02-03T11:50:43.618Z,18.10
2019-02-03T11:53:14.157Z,18.60
2019-02-03T11:55:43.025Z,17.40
2019-02-03T11:58:12.357Z,17.80
2019-02-03T12:00:40.931Z,17.30
2019-02-03T12:03:09.867Z,17.40
2019-02-03T12:05:38.920Z,17.60
2019-02-03T12:08:08.362Z,16.90
2019-02-03T12:10:37.244Z,17.10
2019-02-03T12:13:06.880Z,15.20
2019-02-03T12:15:36.400Z,15.63
2019-02-03T12:18:06.001Z,15.30
2019-02-03T12:20:34.445Z,14.33
2019-02-03T12:23:02.934Z,14.73
2019-02-03T12:25:34.301Z,14.13
2019-02-03T12:28:04.312Z,14.80
2019-02-03T12:30:33.652Z,14.93
2019-02-03T12:33:03.318Z,15.77
2019-02-03T12:35:31.982Z,12.87
2019-02-03T12:38:00.511Z,13.20
2019-02-03T12:40:32.001Z,15.00
2019-02-03T12:43:00.734Z,13.37
2019-02-03T12:45:29.797Z,11.83
2019-02-03T12:47:58.627Z,12.70
2019-02-03T12:50:27.121Z,12.53
2019-02-03T12:52:55.570Z,12.80
2019-02-03T12:55:27.240Z,12.10
2019-02-03T12:57:55.974Z,12.47
2019-02-03T13:00:32.471Z,12.90
2019-02-03T13:03:01.194Z,12.33
2019-02-03T13:05:30.051Z,10.00
2019-02-03T13:07:59.892Z,10.40
2019-02-03T13:10:34.150Z,11.90
2019-02-03T13:13:02.552Z,10.40
2019-02-03T13:15:48.320Z,9.50
2019-02-03T13:18:16.796Z,10.60
2019-02-03T13:20:45.669Z,8.73
2019-02-03T13:23:14.518Z,9.57
2019-02-03T13:25:43.257Z,9.67
2019-02-03T13:28:11.829Z,8.87
2019-02-03T13:30:42.866Z,8.73
2019-02-03T13:33:11.514Z,8.17
2019-02-03T13:35:40.027Z,8.87
2019-02-03T13:38:09.069Z,7.80
2019-02-03T13:40:37.566Z,8.50
2019-02-03T13:43:06.147Z,7.43
2019-02-03T13:45:34.638Z,7.10
2019-02-03T13:48:03.173Z,6.77
2019-02-03T13:50:31.978Z,7.10
2019-02-03T13:53:00.394Z,7.43
2019-02-03T13:55:29.189Z,7.23
2019-02-03T13:57:57.661Z,6.37
2019-02-03T14:00:29.322Z,5.80
2019-02-03T14:02:58.004Z,5.70
2019-02-03T14:05:26.721Z,5.23
2019-02-03T14:07:55.318Z,5.53
2019-02-03T14:10:29.278Z,5.50
2019-02-03T14:12:58.648Z,5.10
2019-02-03T14:15:27.696Z,5.97
2019-02-03T14:17:56.466Z,5.70
2019-02-03T14:20:26.630Z,4.80
2019-02-03T14:22:56.756Z,5.10
2019-02-03T14:25:25.942Z,4.50
2019-02-03T14:27:55.131Z,4.10
2019-02-03T14:30:26.164Z,5.70
2019-02-03T14:32:58.292Z,6.20
2019-02-03T14:35:25.375Z,4.30
2019-02-03T14:37:54.069Z,4.90
2019-02-03T14:40:23.815Z,4.70
2019-02-03T14:43:01.086Z,5.43
2019-02-03T14:45:24.582Z,5.03
2019-02-03T14:47:53.151Z,5.20
2019-02-03T14:50:25.496Z,5.17
2019-02-03T14:52:56.815Z,4.80
2019-02-03T14:55:31.239Z,5.17
2019-02-03T14:57:59.929Z,4.20
2019-02-03T15:00:30.626Z,5.50
2019-02-03T15:03:00.178Z,4.73
2019-02-03T15:05:29.024Z,4.60
2019-02-03T15:07:57.715Z,4.83
2019-02-03T15:10:26.259Z,5.80
2019-02-03T15:12:54.736Z,3.90
2019-02-03T15:15:26.030Z,5.70
2019-02-03T15:17:54.905Z,5.00
2019-02-03T15:20:24.853Z,6.43
2019-02-03T15:22:53.904Z,4.60
2019-02-03T15:25:23.376Z,4.20
2019-02-03T15:27:51.986Z,4.20
2019-02-03T15:30:23.514Z,4.90
2019-02-03T15:32:51.985Z,4.27
2019-02-03T15:35:20.696Z,4.33
2019-02-03T15:37:49.214Z,3.37
2019-02-03T15:40:20.924Z,3.30
2019-02-03T15:42:49.580Z,3.60
2019-02-03T15:45:20.544Z,3.93
2019-02-03T15:47:49.210Z,4.00
2019-02-03T15:50:21.670Z,3.30
2019-02-03T15:52:50.818Z,3.70
2019-02-03T15:55:22.333Z,3.50
2019-02-03T15:57:51.623Z,4.00
2019-02-03T16:00:30.224Z,2.83
2019-02-03T16:02:58.693Z,4.33
2019-02-03T16:05:27.614Z,4.00
2019-02-03T16:07:56.050Z,4.03
2019-02-03T16:10:26.488Z,3.40
2019-02-03T16:12:54.947Z,3.60
2019-02-03T16:15:23.598Z,2.90
2019-02-03T16:17:52.457Z,3.60
2019-02-03T16:20:30.969Z,3.70
2019-02-03T16:23:00.662Z,2.90
2019-02-03T16:25:29.442Z,3.03
2019-02-03T16:27:58.101Z,4.57
2019-02-03T16:30:32.473Z,3.60
2019-02-03T16:33:01.309Z,3.20
2019-02-03T16:35:30.259Z,3.10
2019-02-03T16:37:59.009Z,4.00
2019-02-03T16:40:32.081Z,3.80
2019-02-03T16:43:00.711Z,4.23
2019-02-03T16:45:29.621Z,3.73
2019-02-03T16:47:58.282Z,4.17
2019-02-03T16:50:29.110Z,3.60
2019-02-03T16:52:58.517Z,4.73
2019-02-03T16:55:27.152Z,3.60
2019-02-03T16:57:56.496Z,4.30
2019-02-03T17:00:27.648Z,5.17
2019-02-03T17:02:57.364Z,3.37
2019-02-03T17:05:27.893Z,3.30
2019-02-03T17:07:57.035Z,5.17
2019-02-03T17:10:26.380Z,3.87
2019-02-03T17:12:55.238Z,5.20
2019-02-03T17:15:44.870Z,4.77
2019-02-03T17:18:14.102Z,5.10
2019-02-03T17:20:42.900Z,5.17
2019-02-03T17:23:12.506Z,4.70
2019-02-03T17:25:50.317Z,4.67
2019-02-03T17:28:19.497Z,3.70
2019-02-03T17:30:48.088Z,4.07
2019-02-03T17:33:17.034Z,5.00
2019-02-03T17:35:54.004Z,4.20
2019-02-03T17:38:16.127Z,4.50
2019-02-03T17:40:44.607Z,3.33
2019-02-03T17:43:13.027Z,3.80
2019-02-03T17:45:41.728Z,4.43
2019-02-03T17:48:10.563Z,3.77
2019-02-03T17:50:39.190Z,4.20
2019-02-03T17:53:07.997Z,4.70
2019-02-03T17:55:36.510Z,5.20
2019-02-03T17:58:05.165Z,4.67
2019-02-03T18:00:44.373Z,4.50
2019-02-03T18:03:12.843Z,4.37
2019-02-03T18:05:41.463Z,4.80
2019-02-03T18:08:11.001Z,5.73
2019-02-03T18:10:39.391Z,4.60
2019-02-03T18:13:08.260Z,4.67
2019-02-03T18:15:37.025Z,5.30
2019-02-03T18:18:07.308Z,4.17
2019-02-03T18:20:36.084Z,4.17
2019-02-03T18:23:05.555Z,6.00
2019-02-03T18:25:34.031Z,4.63
2019-02-03T18:28:02.419Z,3.50
2019-02-03T18:30:32.413Z,5.03
2019-02-03T18:33:01.534Z,5.27
2019-02-03T18:35:30.096Z,4.20
2019-02-03T18:38:01.704Z,4.60
2019-02-03T18:40:30.185Z,4.40
2019-02-03T18:43:01.703Z,4.30
2019-02-03T18:45:29.334Z,4.10
2019-02-03T18:47:58.018Z,4.27
2019-02-03T18:50:26.705Z,4.20
2019-02-03T18:52:56.373Z,4.60
2019-02-03T18:55:28.990Z,3.97
2019-02-03T18:57:57.748Z,4.00
2019-02-03T19:00:28.701Z,3.77
2019-02-03T19:02:57.421Z,3.73
2019-02-03T19:05:29.093Z,4.70
2019-02-03T19:07:57.740Z,4.40
2019-02-03T19:10:27.450Z,3.57
2019-02-03T19:12:55.835Z,4.87
2019-02-03T19:15:26.166Z,4.70
2019-02-03T19:17:54.877Z,5.37
2019-02-03T19:20:28.765Z,5.03
2019-02-03T19:22:57.644Z,4.63
2019-02-03T19:25:26.800Z,4.53
2019-02-03T19:27:55.593Z,4.80
2019-02-03T19:30:25.899Z,4.57
2019-02-03T19:32:54.650Z,4.20
2019-02-03T19:35:31.598Z,4.63
2019-02-03T19:38:01.825Z,4.33
2019-02-03T19:40:34.161Z,4.60
2019-02-03T19:43:03.140Z,5.10
2019-02-03T19:45:32.870Z,3.90
2019-02-03T19:48:01.514Z,4.50
2019-02-03T19:50:38.244Z,4.80
2019-02-03T19:53:08.538Z,5.30
2019-02-03T19:55:37.380Z,5.43
2019-02-03T19:58:07.175Z,5.47
2019-02-03T20:00:41.509Z,4.70
2019-02-03T20:03:10.694Z,5.43
2019-02-03T20:05:42.646Z,5.23
2019-02-03T20:08:10.793Z,4.97
2019-02-03T20:10:39.309Z,4.53
2019-02-03T20:13:08.364Z,5.10
2019-02-03T20:15:37.079Z,5.47
2019-02-03T20:18:05.750Z,5.27
2019-02-03T20:20:36.668Z,5.47
2019-02-03T20:23:06.648Z,5.77
2019-02-03T20:25:35.868Z,6.40
2019-02-03T20:28:05.737Z,4.83
2019-02-03T20:30:38.467Z,4.70
2019-02-03T20:33:05.078Z,5.43
2019-02-03T20:35:33.814Z,5.73
2019-02-03T20:38:02.496Z,5.77
2019-02-03T20:40:34.114Z,6.50
2019-02-03T20:43:02.911Z,7.63
2019-02-03T20:45:31.743Z,6.67
2019-02-03T20:48:00.256Z,7.07
2019-02-03T20:50:29.012Z,6.57
2019-02-03T20:52:58.620Z,6.60
2019-02-03T20:55:27.509Z,6.23
2019-02-03T20:57:56.358Z,7.00
2019-02-03T21:00:30.099Z,6.13
2019-02-03T21:02:58.832Z,6.80
2019-02-03T21:05:27.700Z,7.40
2019-02-03T21:07:56.196Z,7.00
2019-02-03T21:10:25.984Z,7.40
2019-02-03T21:12:54.962Z,6.77
2019-02-03T21:15:32.957Z,7.37
2019-02-03T21:17:56.245Z,7.30
2019-02-03T21:20:27.331Z,7.40
2019-02-03T21:22:55.812Z,7.07
2019-02-03T21:25:24.455Z,9.00
2019-02-03T21:27:53.269Z,7.97
2019-02-03T21:30:27.585Z,7.03
2019-02-03T21:32:56.595Z,6.73
2019-02-03T21:35:25.148Z,6.90
2019-02-03T21:37:53.836Z,8.00
2019-02-03T21:40:28.199Z,7.07
2019-02-03T21:42:56.841Z,6.87
2019-02-03T21:45:25.596Z,7.30
2019-02-03T21:47:54.407Z,7.40
2019-02-03T21:50:28.310Z,10.13
2019-02-03T21:52:57.332Z,9.43
2019-02-03T21:55:26.412Z,7.50
2019-02-03T21:57:55.400Z,7.80
2019-02-03T22:00:32.109Z,6.80
2019-02-03T22:03:01.286Z,6.60
2019-02-03T22:05:30.538Z,6.90
2019-02-03T22:07:59.386Z,7.27
2019-02-03T22:10:32.655Z,7.47
2019-02-03T22:13:03.063Z,8.23
2019-02-03T22:15:32.085Z,7.53
2019-02-03T22:18:01.490Z,7.13
2019-02-03T22:20:30.292Z,9.03
2019-02-03T22:22:58.816Z,6.90
2019-02-03T22:25:27.214Z,7.13
2019-02-03T22:27:55.917Z,7.57
2019-02-03T22:30:27.346Z,7.40
2019-02-03T22:32:55.817Z,8.20
2019-02-03T22:35:24.218Z,12.00
2019-02-03T22:37:52.735Z,23.37
2019-02-03T22:40:21.877Z,9.50
2019-02-03T22:42:50.364Z,6.83
2019-02-03T22:45:21.004Z,7.43
2019-02-03T22:47:49.762Z,6.63
2019-02-03T22:50:28.841Z,6.93
2019-02-03T22:52:57.704Z,6.43
2019-02-03T22:55:26.243Z,6.83
2019-02-03T22:57:55.633Z,8.10
2019-02-03T23:00:46.976Z,7.90
2019-02-03T23:03:16.206Z,6.97
2019-02-03T23:05:45.317Z,6.30
2019-02-03T23:08:13.854Z,6.47
2019-02-03T23:10:42.777Z,6.20
2019-02-03T23:13:11.372Z,6.23
2019-02-03T23:15:40.037Z,7.17
2019-02-03T23:18:08.977Z,7.50
2019-02-03T23:20:37.403Z,6.13
2019-02-03T23:23:06.118Z,7.03
2019-02-03T23:25:35.223Z,6.87
2019-02-03T23:28:03.988Z,6.70
2019-02-03T23:30:32.684Z,7.30
2019-02-03T23:33:01.560Z,6.03
2019-02-03T23:35:30.317Z,7.23
2019-02-03T23:37:58.987Z,6.73
2019-02-03T23:40:27.683Z,6.80
2019-02-03T23:42:58.676Z,8.13
2019-02-03T23:45:26.492Z,7.40
2019-02-03T23:47:55.024Z,8.33
2019-02-03T23:50:23.501Z,8.33
2019-02-03T23:52:52.158Z,9.30
2019-02-03T23:55:20.847Z,8.30
2019-02-03T23:57:49.266Z,7.17
